Time;durP1;ratioP1;P1;durP2;ratioP2;P2;SDS_P1;SDS_P2;PMS_P1;PMS_P2;Temp;Humidity;BMP_temperature;BMP_pressure;BME280_temperature;BME280_humidity;BME280_pressure;Samples;Min_cycle;Max_cycle;Signal;HPM_P1;HPM_P2
2022/07/18 00:02:09;;;;;;;3.40;2.60;;;19.10;51.20;;;;;;5000156;28;20490;-81
2022/07/18 00:04:36;;;;;;;3.50;2.50;;;19.10;52.10;;;;;;4980776;28;20480;-81
2022/07/18 00:07:05;;;;;;;3.23;2.80;;;19.10;52.70;;;;;;4997612;28;20538;-81
2022/07/18 00:09:33;;;;;;;3.03;2.83;;;19.10;54.10;;;;;;4998350;28;20455;-81
2022/07/18 00:12:00;;;;;;;2.93;2.73;;;19.00;54.40;;;;;;4998423;28;20456;-81
2022/07/18 00:14:28;;;;;;;2.10;2.00;;;19.00;54.70;;;;;;4998120;28;20458;-80
2022/07/18 00:16:55;;;;;;;2.50;2.30;;;19.00;54.70;;;;;;4997457;28;20582;-81
2022/07/18 00:19:21;;;;;;;4.37;2.60;;;18.90;54.30;;;;;;4997563;28;20990;-80
2022/07/18 00:21:48;;;;;;;2.77;2.23;;;18.90;54.40;;;;;;4997881;28;20467;-80
2022/07/18 00:24:15;;;;;;;3.43;2.80;;;18.80;54.10;;;;;;4997800;28;20469;-80
2022/07/18 00:26:42;;;;;;;2.20;2.10;;;18.80;54.60;;;;;;4997172;28;20463;-81
2022/07/18 00:29:09;;;;;;;3.40;2.47;;;18.80;54.80;;;;;;4997754;28;20502;-81
2022/07/18 00:31:38;;;;;;;2.50;2.30;;;18.70;54.70;;;;;;4997794;28;20469;-80
2022/07/18 00:34:06;;;;;;;2.80;2.60;;;18.60;54.60;;;;;;4998083;28;20455;-81
2022/07/18 00:36:33;;;;;;;2.90;2.00;;;18.50;54.60;;;;;;4997242;28;20501;-81
2022/07/18 00:38:59;;;;;;;2.80;2.60;;;18.50;55.20;;;;;;4997385;28;20839;-81
2022/07/18 00:41:26;;;;;;;2.77;2.53;;;18.40;55.80;;;;;;4997433;28;20825;-80
2022/07/18 00:43:54;;;;;;;3.83;2.40;;;18.40;56.40;;;;;;4997479;28;20449;-80
2022/07/18 00:46:23;;;;;;;2.53;2.33;;;18.40;56.60;;;;;;4997406;28;20827;-80
2022/07/18 00:48:52;;;;;;;2.93;2.73;;;18.40;56.20;;;;;;5087181;23;20498;-86
2022/07/18 00:51:20;;;;;;;2.83;2.63;;;18.30;56.10;;;;;;4993596;28;20465;-86
2022/07/18 00:53:48;;;;;;;2.97;2.60;;;18.30;56.10;;;;;;4993612;28;20482;-86
2022/07/18 00:56:19;;;;;;;2.30;2.20;;;18.30;56.50;;;;;;4992418;28;20495;-86
2022/07/18 00:58:54;;;;;;;2.90;2.80;;;18.40;56.90;;;;;;4993514;28;20470;-86
2022/07/18 01:04:06;;;;;;;3.53;2.40;;;18.30;57.50;;;;;;4993510;28;20425;-85
2022/07/18 01:06:33;;;;;;;2.67;2.47;;;18.30;57.50;;;;;;4992968;28;20457;-86
2022/07/18 01:09:00;;;;;;;3.57;3.27;;;18.30;58.10;;;;;;4993400;28;20696;-86
2022/07/18 01:11:27;;;;;;;2.70;2.50;;;18.20;58.50;;;;;;4993174;28;20458;-85
2022/07/18 01:13:54;;;;;;;3.67;3.40;;;18.20;59.20;;;;;;4993200;28;20608;-84
2022/07/18 01:16:22;;;;;;;2.93;2.73;;;18.20;59.10;;;;;;4993056;28;20581;-83
2022/07/18 01:18:49;;;;;;;3.23;2.33;;;18.10;59.20;;;;;;4993090;28;20487;-84
2022/07/18 01:21:18;;;;;;;3.03;2.83;;;18.10;59.30;;;;;;4993035;28;20843;-84
2022/07/18 01:23:45;;;;;;;3.17;2.87;;;18.10;59.20;;;;;;4993152;28;20820;-84
2022/07/18 01:26:13;;;;;;;2.93;2.73;;;18.00;58.80;;;;;;4992672;28;20468;-86
2022/07/18 01:28:41;;;;;;;2.40;2.20;;;18.00;58.90;;;;;;4992865;28;20805;-86
2022/07/18 01:31:08;;;;;;;3.13;2.80;;;18.00;59.10;;;;;;4992996;28;20454;-84
2022/07/18 01:33:35;;;;;;;2.70;2.50;;;18.00;59.90;;;;;;4993605;28;20884;-84
2022/07/18 01:36:03;;;;;;;3.03;2.70;;;18.00;61.40;;;;;;4997468;28;20485;-84
2022/07/18 01:38:36;;;;;;;3.00;2.80;;;17.90;61.50;;;;;;4995329;28;20840;-83
2022/07/18 01:41:04;;;;;;;2.47;2.27;;;17.90;61.90;;;;;;4992913;28;20454;-84
2022/07/18 01:43:31;;;;;;;3.47;3.20;;;17.80;61.80;;;;;;4993128;28;20475;-84
2022/07/18 01:46:07;;;;;;;1.93;1.87;;;17.80;61.60;;;;;;4992475;28;20977;-84
2022/07/18 01:48:36;;;;;;;2.13;2.03;;;17.80;59.80;;;;;;4992634;28;20485;-84
2022/07/18 01:51:02;;;;;;;3.77;3.57;;;17.70;58.40;;;;;;4992851;28;20964;-86
2022/07/18 01:53:31;;;;;;;2.73;2.53;;;17.70;58.10;;;;;;5013567;28;20451;-83
2022/07/18 01:55:57;;;;;;;2.00;1.90;;;17.70;57.90;;;;;;5017285;28;20487;-82
2022/07/18 01:58:24;;;;;;;2.43;2.33;;;17.70;57.60;;;;;;4995324;28;20878;-83
2022/07/18 02:00:55;;;;;;;2.80;2.60;;;17.70;57.30;;;;;;4993303;28;20458;-83
2022/07/18 02:03:22;;;;;;;2.40;2.20;;;17.70;58.00;;;;;;5013585;28;20526;-83
2022/07/18 02:05:49;;;;;;;2.50;2.33;;;17.70;58.30;;;;;;5017049;28;20510;-83
2022/07/18 02:08:16;;;;;;;2.20;2.00;;;17.60;57.60;;;;;;4996695;28;20478;-84
2022/07/18 02:10:44;;;;;;;2.37;2.17;;;17.60;57.30;;;;;;4992776;28;20458;-84
2022/07/18 02:13:10;;;;;;;2.90;2.20;;;17.60;57.30;;;;;;5012091;28;20441;-83
2022/07/18 02:15:37;;;;;;;2.73;2.53;;;17.60;58.10;;;;;;5017123;28;20485;-82
2022/07/18 02:18:04;;;;;;;2.07;1.97;;;17.50;58.50;;;;;;4997907;28;20469;-83
2022/07/18 02:20:31;;;;;;;1.97;1.80;;;17.50;58.90;;;;;;4992849;28;20470;-84
2022/07/18 02:22:58;;;;;;;2.90;1.80;;;17.50;58.50;;;;;;4992378;28;20459;-84
2022/07/18 02:25:24;;;;;;;2.00;1.90;;;17.50;58.60;;;;;;4992565;28;20470;-84
2022/07/18 02:27:52;;;;;;;3.60;2.20;;;17.40;58.20;;;;;;4992045;28;20478;-83
2022/07/18 02:30:20;;;;;;;3.70;2.60;;;17.40;58.40;;;;;;4992374;28;20485;-83
2022/07/18 02:32:46;;;;;;;2.63;2.20;;;17.40;58.80;;;;;;4992315;28;20597;-84
2022/07/18 02:35:13;;;;;;;3.27;2.00;;;17.30;59.30;;;;;;4992443;28;20484;-84
2022/07/18 02:37:41;;;;;;;3.00;2.80;;;17.20;59.20;;;;;;4991746;28;20497;-83
2022/07/18 02:40:10;;;;;;;4.67;2.57;;;17.20;59.20;;;;;;4992218;28;21030;-84
2022/07/18 02:42:37;;;;;;;2.33;2.13;;;17.20;59.30;;;;;;4992061;28;20785;-84
2022/07/18 02:45:07;;;;;;;3.03;2.60;;;17.20;59.40;;;;;;4992270;28;20465;-84
2022/07/18 02:47:34;;;;;;;2.30;2.10;;;17.10;59.80;;;;;;4991954;28;20454;-84
2022/07/18 02:50:01;;;;;;;3.17;2.90;;;17.10;60.10;;;;;;4974208;28;20443;-84
2022/07/18 02:52:27;;;;;;;2.90;2.70;;;17.10;61.30;;;;;;4977108;28;20451;-84
2022/07/18 02:54:56;;;;;;;3.87;3.33;;;17.00;62.10;;;;;;4974029;28;20989;-84
2022/07/18 02:57:23;;;;;;;3.37;3.17;;;17.00;62.50;;;;;;4972332;28;21019;-83
2022/07/18 02:59:50;;;;;;;3.50;3.20;;;17.00;62.00;;;;;;4972956;28;20463;-84
2022/07/18 03:02:18;;;;;;;3.90;2.23;;;17.00;62.40;;;;;;4974020;28;20465;-83
2022/07/18 03:04:45;;;;;;;2.20;2.00;;;17.00;62.30;;;;;;4973327;28;20469;-83
2022/07/18 03:07:11;;;;;;;3.87;3.53;;;17.00;62.40;;;;;;4972286;28;20484;-84
2022/07/18 03:09:38;;;;;;;3.27;2.97;;;16.90;62.80;;;;;;4972151;28;20482;-84
2022/07/18 03:12:05;;;;;;;2.60;2.40;;;16.90;63.00;;;;;;4972830;28;20546;-83
2022/07/18 03:14:32;;;;;;;2.13;2.00;;;16.90;62.80;;;;;;4972711;28;20452;-83
2022/07/18 03:17:00;;;;;;;2.20;1.80;;;16.90;62.50;;;;;;4972485;28;20900;-85
2022/07/18 03:19:28;;;;;;;1.80;1.70;;;16.80;61.60;;;;;;4973599;28;20478;-83
2022/07/18 03:21:55;;;;;;;1.57;1.47;;;16.70;60.70;;;;;;4975993;28;20541;-84
2022/07/18 03:24:21;;;;;;;1.60;1.50;;;16.60;60.60;;;;;;4975775;28;20465;-84
2022/07/18 03:26:48;;;;;;;1.50;1.40;;;16.60;60.20;;;;;;4975813;28;20486;-84
2022/07/18 03:29:15;;;;;;;1.80;1.70;;;16.60;59.90;;;;;;4975942;28;20481;-84
2022/07/18 03:31:49;;;;;;;2.50;2.13;;;16.60;60.10;;;;;;4975861;28;20454;-83
2022/07/18 03:34:16;;;;;;;2.00;1.90;;;16.60;60.40;;;;;;4975871;28;20830;-84
2022/07/18 03:36:45;;;;;;;2.73;2.53;;;16.60;61.10;;;;;;4975264;28;20512;-84
2022/07/18 03:39:12;;;;;;;1.97;1.87;;;16.60;61.50;;;;;;4975677;28;21020;-84
2022/07/18 03:41:39;;;;;;;2.43;2.23;;;16.60;62.00;;;;;;4975560;28;20815;-84
2022/07/18 03:44:12;;;;;;;2.50;2.30;;;16.60;61.70;;;;;;4975434;28;20988;-84
2022/07/18 03:46:44;;;;;;;1.93;1.83;;;16.50;62.20;;;;;;4975131;28;20450;-84
2022/07/18 03:49:10;;;;;;;2.17;2.07;;;16.50;62.30;;;;;;4987971;28;20976;-84
2022/07/18 03:51:37;;;;;;;3.50;2.00;;;16.50;62.30;;;;;;4995048;28;20461;-84
2022/07/18 03:54:06;;;;;;;2.40;1.67;;;16.50;62.30;;;;;;4995032;28;20482;-83
2022/07/18 03:56:32;;;;;;;2.80;2.20;;;16.40;62.50;;;;;;4994334;28;21016;-84
2022/07/18 03:58:59;;;;;;;2.30;2.20;;;16.40;63.00;;;;;;4994702;28;20484;-84
2022/07/18 04:01:26;;;;;;;2.23;2.10;;;16.50;63.90;;;;;;4994673;28;20867;-84
2022/07/18 04:04:00;;;;;;;2.73;2.53;;;16.50;64.40;;;;;;4994561;28;20457;-83
2022/07/18 04:06:27;;;;;;;3.27;3.03;;;16.50;64.70;;;;;;4996874;28;20964;-84
2022/07/18 04:08:54;;;;;;;4.47;2.40;;;16.50;65.20;;;;;;4999167;28;20484;-83
2022/07/18 04:11:23;;;;;;;2.20;2.00;;;16.50;65.50;;;;;;4995303;28;20457;-84
2022/07/18 04:13:50;;;;;;;2.80;2.23;;;16.50;65.80;;;;;;4994380;28;20965;-84
2022/07/18 04:16:17;;;;;;;3.10;2.93;;;16.50;66.20;;;;;;4993912;28;20485;-84
2022/07/18 04:18:44;;;;;;;3.33;3.13;;;16.50;66.00;;;;;;4994549;28;20474;-84
2022/07/18 04:21:11;;;;;;;4.03;2.17;;;16.60;66.20;;;;;;4994335;28;20458;-84
2022/07/18 04:23:37;;;;;;;2.93;2.10;;;16.60;66.70;;;;;;4994456;28;20454;-84
2022/07/18 04:26:04;;;;;;;3.10;2.70;;;16.60;66.80;;;;;;4994100;28;20461;-84
2022/07/18 04:28:33;;;;;;;3.03;2.60;;;16.60;67.50;;;;;;4994154;28;20473;-85
2022/07/18 04:31:00;;;;;;;6.70;3.07;;;16.70;68.40;;;;;;4992886;28;20460;-84
2022/07/18 04:33:27;;;;;;;3.50;2.40;;;16.70;68.60;;;;;;4994086;28;20462;-84
2022/07/18 04:35:53;;;;;;;2.73;2.53;;;16.70;68.70;;;;;;4993724;28;20461;-84
2022/07/18 04:38:20;;;;;;;2.40;2.20;;;16.80;68.10;;;;;;4994208;28;20507;-84
2022/07/18 04:40:47;;;;;;;2.90;2.37;;;16.80;67.90;;;;;;4993965;28;20468;-84
2022/07/18 04:43:14;;;;;;;7.30;2.23;;;16.80;68.50;;;;;;4993803;28;20935;-83
2022/07/18 04:45:42;;;;;;;3.07;2.77;;;16.80;68.70;;;;;;4993909;28;20465;-84
2022/07/18 04:48:09;;;;;;;3.20;2.90;;;16.80;69.50;;;;;;4993490;28;20477;-84
2022/07/18 04:50:35;;;;;;;3.97;3.50;;;16.90;70.00;;;;;;4993813;28;20528;-83
2022/07/18 04:53:02;;;;;;;2.90;2.70;;;16.90;70.50;;;;;;4993872;28;20968;-84
2022/07/18 04:55:29;;;;;;;3.20;3.00;;;16.90;70.50;;;;;;4993627;28;20883;-84
2022/07/18 04:57:56;;;;;;;4.00;3.70;;;17.00;71.00;;;;;;4992932;28;20504;-84
2022/07/18 05:00:24;;;;;;;3.00;2.43;;;17.00;71.00;;;;;;4993527;28;20462;-86
2022/07/18 05:02:54;;;;;;;3.30;2.70;;;17.10;70.90;;;;;;4993486;28;20458;-84
2022/07/18 05:05:22;;;;;;;3.33;3.13;;;17.10;70.60;;;;;;4993847;28;20512;-86
2022/07/18 05:07:50;;;;;;;4.90;3.07;;;17.20;70.20;;;;;;4993355;28;20560;-84
2022/07/18 05:10:25;;;;;;;4.67;3.90;;;17.20;69.10;;;;;;4993435;28;20457;-84
2022/07/18 05:12:54;;;;;;;2.80;2.60;;;17.20;68.50;;;;;;4999521;28;20958;-83
2022/07/18 05:15:23;;;;;;;4.30;3.00;;;17.30;68.90;;;;;;5004228;28;20541;-84
2022/07/18 05:17:52;;;;;;;5.57;3.60;;;17.40;68.80;;;;;;5003495;28;20497;-84
2022/07/18 05:20:21;;;;;;;5.50;2.90;;;17.40;68.80;;;;;;5003286;28;20814;-83
2022/07/18 05:22:48;;;;;;;4.30;3.90;;;17.50;68.80;;;;;;5005641;28;20480;-83
2022/07/18 05:25:15;;;;;;;6.47;3.33;;;17.60;68.60;;;;;;5005179;28;20461;-83
2022/07/18 05:27:42;;;;;;;3.10;2.90;;;17.60;68.50;;;;;;5002768;28;20449;-83
2022/07/18 05:30:11;;;;;;;4.03;3.33;;;17.70;69.60;;;;;;5003529;28;20497;-83
2022/07/18 05:32:38;;;;;;;5.17;3.27;;;17.80;69.50;;;;;;5003058;28;20459;-83
2022/07/18 05:35:10;;;;;;;5.00;3.00;;;17.90;69.40;;;;;;5002737;28;20458;-83
2022/07/18 05:37:39;;;;;;;4.90;3.90;;;18.00;69.30;;;;;;5002713;28;20494;-83
2022/07/18 05:40:08;;;;;;;4.60;3.47;;;18.10;69.10;;;;;;5003750;28;20458;-84
2022/07/18 05:42:36;;;;;;;5.60;3.20;;;18.10;68.90;;;;;;5003678;28;20449;-84
2022/07/18 05:45:03;;;;;;;4.07;3.77;;;18.20;68.90;;;;;;5002495;28;20451;-84
2022/07/18 05:47:30;;;;;;;3.73;3.10;;;18.30;69.20;;;;;;5001913;28;20594;-84
2022/07/18 05:52:46;;;;;;;4.30;3.57;;;18.50;69.80;;;;;;4942124;29;20425;-84
2022/07/18 05:55:13;;;;;;;6.17;3.60;;;18.60;70.40;;;;;;4987014;28;20439;-84
2022/07/18 05:57:40;;;;;;;9.70;4.03;;;18.60;70.70;;;;;;5001680;28;20497;-84
2022/07/18 06:00:10;;;;;;;9.77;4.33;;;18.70;70.30;;;;;;5003059;28;20465;-84
2022/07/18 06:02:37;;;;;;;6.27;4.23;;;18.80;70.60;;;;;;5007425;28;20447;-84
2022/07/18 06:05:05;;;;;;;6.53;4.30;;;18.90;70.80;;;;;;5008426;28;20943;-84
2022/07/18 06:07:31;;;;;;;4.57;3.40;;;19.00;71.60;;;;;;5002177;28;20447;-84
2022/07/18 06:10:00;;;;;;;9.50;4.47;;;19.10;71.70;;;;;;5004400;28;20466;-84
2022/07/18 06:12:29;;;;;;;5.00;4.30;;;19.20;70.00;;;;;;5015955;28;20478;-84
2022/07/18 06:14:56;;;;;;;6.23;3.80;;;19.20;69.90;;;;;;5013733;28;20482;-84
2022/07/18 06:17:25;;;;;;;4.33;3.00;;;19.30;70.70;;;;;;5013109;28;20483;-84
2022/07/18 06:19:52;;;;;;;7.87;3.63;;;19.40;70.80;;;;;;5003084;28;20466;-84
2022/07/18 06:22:20;;;;;;;4.60;3.50;;;19.50;71.40;;;;;;5015933;28;20522;-84
2022/07/18 06:24:47;;;;;;;4.30;3.90;;;19.60;70.60;;;;;;5015656;28;20438;-84
2022/07/18 06:27:15;;;;;;;4.83;3.30;;;19.70;70.10;;;;;;5004491;28;20448;-84
2022/07/18 06:29:42;;;;;;;4.57;3.00;;;19.80;70.40;;;;;;5001485;28;20564;-84
2022/07/18 06:32:08;;;;;;;5.57;3.80;;;19.90;71.00;;;;;;5002792;28;20973;-84
2022/07/18 06:34:35;;;;;;;16.00;5.17;;;20.00;69.80;;;;;;5000227;28;20462;-84
2022/07/18 06:37:03;;;;;;;5.97;3.20;;;20.10;69.60;;;;;;5000836;28;20606;-84
2022/07/18 06:39:30;;;;;;;5.63;3.00;;;20.20;69.30;;;;;;5003731;28;20544;-84
2022/07/18 06:41:56;;;;;;;5.17;3.80;;;20.30;68.50;;;;;;5003184;28;20468;-84
2022/07/18 06:44:24;;;;;;;5.83;3.20;;;20.40;68.40;;;;;;5000903;28;20461;-84
2022/07/18 06:46:59;;;;;;;10.33;4.30;;;20.50;67.90;;;;;;5000664;28;20458;-84
2022/07/18 06:49:27;;;;;;;12.23;3.73;;;20.60;68.40;;;;;;5022101;23;20513;-85
2022/07/18 06:51:54;;;;;;;5.57;3.53;;;20.70;67.70;;;;;;4997614;28;20456;-85
2022/07/18 06:54:27;;;;;;;4.80;3.20;;;20.80;67.70;;;;;;4997150;28;20448;-86
2022/07/18 06:56:58;;;;;;;4.83;4.17;;;20.80;68.00;;;;;;4996726;28;20982;-86
2022/07/18 06:59:27;;;;;;;5.97;3.37;;;20.90;68.50;;;;;;4997307;28;20482;-86
2022/07/18 07:01:57;;;;;;;8.00;3.63;;;21.00;68.80;;;;;;4997277;28;20552;-86
2022/07/18 07:04:24;;;;;;;5.07;3.60;;;21.20;68.90;;;;;;4999786;28;20454;-86
2022/07/18 07:06:51;;;;;;;8.27;3.97;;;21.20;68.80;;;;;;4998716;28;20497;-88
2022/07/18 07:09:22;;;;;;;4.37;3.20;;;21.30;67.90;;;;;;4998127;28;20995;-86
2022/07/18 07:11:54;;;;;;;7.87;3.90;;;21.40;67.70;;;;;;4997666;28;20468;-86
2022/07/18 07:14:27;;;;;;;6.97;3.70;;;21.50;68.70;;;;;;4997101;28;20583;-86
2022/07/18 07:16:58;;;;;;;6.13;3.67;;;21.50;69.40;;;;;;4996112;28;20519;-86
2022/07/18 07:19:29;;;;;;;5.57;3.47;;;21.60;69.60;;;;;;4996371;28;20501;-87
2022/07/18 07:22:02;;;;;;;4.47;3.53;;;21.70;69.20;;;;;;4996304;28;20978;-86
2022/07/18 07:24:48;;;;;;;4.20;3.23;;;21.80;70.50;;;;;;4995747;28;20441;-88
2022/07/18 07:27:18;;;;;;;6.30;3.60;;;21.90;68.30;;;;;;4995490;28;20991;-87
2022/07/18 07:29:48;;;;;;;3.70;3.40;;;22.00;68.40;;;;;;4995000;28;21060;-86
2022/07/18 07:32:29;;;;;;;6.30;3.60;;;22.10;66.40;;;;;;4995121;28;20503;-87
2022/07/18 07:35:03;;;;;;;7.40;3.90;;;22.20;67.00;;;;;;4995465;28;20486;-87
2022/07/18 07:37:30;;;;;;;3.50;3.20;;;22.20;66.40;;;;;;4994926;28;20485;-87
2022/07/18 07:40:14;;;;;;;4.90;3.77;;;22.30;66.10;;;;;;4995464;28;20895;-87
2022/07/18 07:42:43;;;;;;;4.13;3.10;;;22.40;62.60;;;;;;4994976;28;20528;-87
2022/07/18 07:45:32;;;;;;;4.20;3.50;;;22.50;63.10;;;;;;4994741;28;20455;-88
2022/07/18 07:48:05;;;;;;;4.77;3.60;;;22.70;63.00;;;;;;4994606;28;20500;-87
2022/07/18 07:50:37;;;;;;;5.53;4.17;;;22.80;64.10;;;;;;4995165;28;20455;-87
2022/07/18 07:53:25;;;;;;;9.63;4.30;;;23.00;63.60;;;;;;4995938;28;20927;-88
2022/07/18 07:55:57;;;;;;;3.90;3.60;;;23.10;63.80;;;;;;4997049;28;21029;-88
2022/07/18 07:58:52;;;;;;;;;;;;;;;;;;;;;
2022/07/18 08:01:27;;;;;;;4.90;3.17;;;23.30;60.70;;;;;;4997146;28;20443;-87
2022/07/18 08:04:12;;;;;;;4.90;3.20;;;23.40;60.50;;;;;;4997401;28;20478;-87
2022/07/18 08:06:42;;;;;;;4.33;3.93;;;23.40;57.10;;;;;;4996918;28;20469;-87
2022/07/18 08:09:19;;;;;;;3.40;3.10;;;23.60;57.80;;;;;;4997114;28;20906;-87
2022/07/18 08:11:54;;;;;;;3.67;3.30;;;23.70;57.70;;;;;;4997481;28;20950;-87
2022/07/18 08:14:41;;;;;;;5.97;2.90;;;23.80;57.90;;;;;;4998071;28;20539;-87
2022/07/18 08:17:30;;;;;;;;;;;;;;;;;;;;;
2022/07/18 08:20:17;;;;;;;7.10;3.40;;;24.00;59.20;;;;;;4978887;28;20476;-86
2022/07/18 08:23:10;;;;;;;4.93;3.57;;;24.20;57.30;;;;;;4975510;28;20576;-87
2022/07/18 08:26:06;;;;;;;6.80;4.13;;;24.20;56.80;;;;;;4904293;28;20796;-89
2022/07/18 08:28:38;;;;;;;3.80;3.50;;;24.30;58.70;;;;;;4974429;28;20536;-88
2022/07/18 08:34:44;;;;;;;4.67;3.27;;;24.50;55.30;;;;;;4973745;28;20449;-87
2022/07/18 08:37:40;;;;;;;6.47;3.77;;;24.70;54.90;;;;;;4974246;28;20956;-87
2022/07/18 08:40:31;;;;;;;4.93;3.30;;;24.90;54.70;;;;;;4974248;28;20496;-87
2022/07/18 08:43:00;;;;;;;3.13;2.90;;;25.00;53.90;;;;;;4974138;28;20820;-87
2022/07/18 08:45:44;;;;;;;4.30;3.50;;;25.10;56.50;;;;;;4974383;28;20457;-88
2022/07/18 08:48:22;;;;;;;4.00;2.93;;;25.30;52.40;;;;;;4974481;28;20454;-89
2022/07/18 08:51:10;;;;;;;6.03;3.17;;;25.40;52.70;;;;;;4974174;28;20454;-87
2022/07/18 08:54:17;;;;;;;3.40;3.20;;;25.60;51.20;;;;;;4974188;28;20460;-87
2022/07/18 08:57:00;;;;;;;2.93;2.73;;;25.70;51.10;;;;;;4974333;28;20820;-87
2022/07/18 08:59:34;;;;;;;2.80;2.60;;;25.70;50.00;;;;;;4973850;28;20910;-87
2022/07/18 09:02:04;;;;;;;5.50;3.60;;;25.90;50.50;;;;;;4973781;28;20459;-87
2022/07/18 09:04:50;;;;;;;3.73;3.40;;;26.10;48.70;;;;;;4974107;28;20468;-87
2022/07/18 09:07:34;;;;;;;3.20;2.90;;;26.20;51.90;;;;;;4973603;28;20475;-87
2022/07/18 09:10:16;;;;;;;4.60;3.40;;;26.30;50.70;;;;;;4973777;28;20484;-87
2022/07/18 09:13:05;;;;;;;3.30;3.00;;;26.50;51.00;;;;;;4974140;28;20460;-88
2022/07/18 09:16:17;;;;;;;3.67;3.40;;;26.60;52.50;;;;;;4973564;28;20497;-87
2022/07/18 09:19:03;;;;;;;3.30;3.00;;;26.80;49.10;;;;;;4916892;28;20582;-88
2022/07/18 09:21:48;;;;;;;4.00;2.80;;;27.00;46.10;;;;;;4973744;28;20948;-87
2022/07/18 09:24:53;;;;;;;3.23;3.03;;;27.10;44.50;;;;;;4973569;28;20525;-87
2022/07/18 09:30:36;;;;;;;3.27;3.07;;;27.30;40.90;;;;;;4917990;28;20961;-87
2022/07/18 09:33:21;;;;;;;3.30;2.40;;;27.50;43.60;;;;;;4972877;28;20957;-88
2022/07/18 09:41:54;;;;;;;2.80;2.70;;;28.10;43.50;;;;;;4963230;28;20459;-88
2022/07/18 09:47:32;;;;;;;2.90;2.43;;;28.30;42.50;;;;;;4966411;28;20546;-88
2022/07/18 09:50:26;;;;;;;2.70;2.60;;;28.40;41.40;;;;;;4973167;28;20476;-87
2022/07/18 09:53:23;;;;;;;4.03;3.63;;;28.60;39.90;;;;;;4973192;28;20468;-88
2022/07/18 09:56:11;;;;;;;3.47;3.17;;;28.80;42.80;;;;;;4961146;28;21007;-88
2022/07/18 09:59:16;;;;;;;2.77;2.67;;;28.90;40.10;;;;;;4973010;28;20566;-87
2022/07/18 10:08:13;;;;;;;3.13;2.80;;;29.30;40.80;;;;;;4962109;28;20471;-90
2022/07/18 10:11:17;;;;;;;3.00;2.80;;;29.40;40.50;;;;;;4972911;28;20480;-88
2022/07/18 10:17:13;;;;;;;3.40;3.20;;;29.70;39.80;;;;;;4966362;28;20461;-88
2022/07/18 10:19:55;;;;;;;3.07;2.87;;;29.90;40.10;;;;;;4962948;28;20494;-88
2022/07/18 10:22:42;;;;;;;3.53;3.23;;;30.00;38.80;;;;;;4973207;28;20808;-88
2022/07/18 10:25:19;;;;;;;3.43;3.23;;;30.10;36.60;;;;;;4972592;28;20467;-88
2022/07/18 10:27:57;;;;;;;2.80;2.60;;;30.20;40.40;;;;;;4972573;28;20549;-88
2022/07/18 10:30:42;;;;;;;2.53;2.33;;;30.40;37.80;;;;;;4975527;28;20459;-90
2022/07/18 10:33:47;;;;;;;2.30;2.20;;;30.50;36.60;;;;;;4976889;28;20818;-88
2022/07/18 10:36:42;;;;;;;2.90;2.70;;;30.80;36.30;;;;;;4897552;29;20466;-87
2022/07/18 10:39:25;;;;;;;2.70;2.50;;;30.70;34.30;;;;;;4897901;29;20463;-88
2022/07/18 10:42:24;;;;;;;3.20;2.40;;;30.70;35.30;;;;;;4959141;28;20612;-87
2022/07/18 10:44:57;;;;;;;2.50;2.30;;;30.80;34.70;;;;;;4976358;28;20447;-88
2022/07/18 10:48:02;;;;;;;2.80;2.33;;;30.80;34.80;;;;;;4976604;28;20452;-87
2022/07/18 10:51:15;;;;;;;2.90;2.43;;;31.00;35.10;;;;;;4976289;28;20532;-88
2022/07/18 10:57:17;;;;;;;2.53;2.30;;;31.50;33.50;;;;;;4937462;28;20466;-88
2022/07/18 11:00:08;;;;;;;1.83;1.73;;;31.70;33.30;;;;;;4976089;28;20469;-88
2022/07/18 11:02:59;;;;;;;2.97;2.00;;;32.00;31.70;;;;;;4975902;28;20966;-88
2022/07/18 11:05:58;;;;;;;2.50;1.90;;;32.20;31.30;;;;;;4974322;28;20812;-88
2022/07/18 11:08:46;;;;;;;2.50;2.30;;;32.20;31.70;;;;;;4975787;28;20561;-88
2022/07/18 11:11:17;;;;;;;2.73;2.53;;;32.40;31.40;;;;;;4976216;28;20463;-88
2022/07/18 11:13:53;;;;;;;2.10;2.00;;;32.60;30.50;;;;;;4976104;28;20439;-88
2022/07/18 11:16:26;;;;;;;2.70;2.10;;;33.10;32.20;;;;;;4975689;28;20460;-88
2022/07/18 11:19:30;;;;;;;2.03;1.93;;;33.30;30.20;;;;;;4975651;28;20513;-90
2022/07/18 11:22:18;;;;;;;1.90;1.80;;;33.70;29.90;;;;;;4975949;28;20535;-88
2022/07/18 11:24:52;;;;;;;2.23;2.03;;;34.00;29.30;;;;;;4975900;28;20456;-88
2022/07/18 11:27:24;;;;;;;2.40;2.30;;;34.10;28.40;;;;;;4975670;28;20888;-90
2022/07/18 11:30:17;;;;;;;2.13;2.03;;;34.40;29.90;;;;;;4975185;28;20955;-88
2022/07/18 11:32:44;;;;;;;2.00;1.90;;;34.80;28.30;;;;;;4975783;28;20494;-88
2022/07/18 11:35:21;;;;;;;2.30;2.20;;;35.20;29.20;;;;;;4975653;28;20564;-87
2022/07/18 11:38:00;;;;;;;2.17;2.00;;;35.70;28.60;;;;;;4978153;28;20530;-86
2022/07/18 11:46:49;;;;;;;2.70;1.60;;;36.70;26.70;;;;;;4976206;28;20457;-88
2022/07/18 11:49:16;;;;;;;4.63;2.17;;;37.20;25.20;;;;;;4979543;28;20492;-84
2022/07/18 11:51:52;;;;;;;2.00;1.90;;;37.80;29.20;;;;;;4980953;28;20463;-86
2022/07/18 11:54:28;;;;;;;2.17;1.87;;;38.30;29.10;;;;;;4981520;28;20447;-86
2022/07/18 11:57:06;;;;;;;2.00;1.90;;;38.90;24.90;;;;;;4981417;28;20464;-83
2022/07/18 11:59:38;;;;;;;1.97;1.87;;;39.10;27.10;;;;;;4984981;28;20472;-83
2022/07/18 12:02:05;;;;;;;2.03;1.93;;;39.40;24.60;;;;;;4985592;28;20459;-85
2022/07/18 12:04:32;;;;;;;1.83;1.73;;;39.60;24.90;;;;;;4980440;28;20456;-84
2022/07/18 12:07:15;;;;;;;2.33;1.90;;;39.90;22.80;;;;;;4981402;28;20471;-83
2022/07/18 12:09:43;;;;;;;1.83;1.73;;;40.30;24.20;;;;;;4983748;28;20491;-83
2022/07/18 12:12:12;;;;;;;3.43;2.27;;;40.70;23.60;;;;;;4980583;28;20464;-83
2022/07/18 12:14:40;;;;;;;2.03;1.93;;;41.20;24.20;;;;;;4981388;28;20456;-83
2022/07/18 12:17:08;;;;;;;2.03;1.93;;;41.30;22.10;;;;;;4981186;28;20524;-83
2022/07/18 12:19:36;;;;;;;2.00;1.90;;;41.00;21.60;;;;;;4983081;28;20562;-82
2022/07/18 12:22:08;;;;;;;2.73;2.53;;;40.80;22.30;;;;;;4983067;28;20448;-82
2022/07/18 12:24:37;;;;;;;2.10;1.90;;;40.80;22.40;;;;;;4982023;28;20452;-82
2022/07/18 12:27:18;;;;;;;2.30;2.17;;;41.00;23.60;;;;;;4980035;28;20460;-83
2022/07/18 12:30:11;;;;;;;3.00;2.80;;;41.50;23.40;;;;;;4978665;28;20561;-83
2022/07/18 12:35:57;;;;;;;1.87;1.67;;;42.70;23.00;;;;;;4898821;28;20564;-85
2022/07/18 12:38:34;;;;;;;6.60;2.00;;;43.10;21.50;;;;;;4975100;28;20476;-86
2022/07/18 13:05:56;;;;;;;2.07;1.97;;;42.60;22.00;;;;;;5208045;23;20513;-80
2022/07/18 13:08:27;;;;;;;2.17;1.87;;;43.00;22.80;;;;;;5001757;28;20451;-82
2022/07/18 13:10:54;;;;;;;1.80;1.70;;;43.70;22.90;;;;;;5001209;28;20483;-82
2022/07/18 13:13:20;;;;;;;2.10;1.90;;;44.30;21.30;;;;;;5001290;28;20937;-82
2022/07/18 13:15:47;;;;;;;2.20;2.10;;;45.00;21.30;;;;;;5015666;28;20478;-82
2022/07/18 14:05:46;;;;;;;2.23;2.03;;;47.80;19.10;;;;;;1356711;26;20288;-81
2022/07/18 14:08:13;;;;;;;2.17;2.07;;;47.90;17.40;;;;;;4949488;29;20469;-81
2022/07/18 14:10:40;;;;;;;1.70;1.60;;;47.30;17.80;;;;;;4959564;29;20496;-82
2022/07/18 14:13:07;;;;;;;2.17;2.07;;;47.60;18.50;;;;;;4959936;29;20834;-82
2022/07/18 14:15:33;;;;;;;2.17;1.93;;;47.60;17.90;;;;;;4959504;29;20468;-82
2022/07/18 14:18:01;;;;;;;2.20;2.00;;;48.00;17.90;;;;;;4959313;28;20476;-82
2022/07/18 14:20:28;;;;;;;2.17;2.07;;;48.30;18.80;;;;;;4953104;29;20541;-82
2022/07/18 14:22:57;;;;;;;2.00;1.90;;;48.30;18.10;;;;;;4955180;29;20512;-83
2022/07/18 14:25:24;;;;;;;2.13;2.03;;;48.10;18.20;;;;;;4953567;29;20456;-82
2022/07/18 14:27:51;;;;;;;2.90;2.40;;;47.50;18.00;;;;;;4953509;28;20480;-82
2022/07/18 14:30:19;;;;;;;1.53;1.43;;;47.60;18.30;;;;;;4954129;29;20493;-81
2022/07/18 14:32:46;;;;;;;2.53;2.40;;;47.30;18.80;;;;;;4953655;29;20929;-81
2022/07/18 14:35:12;;;;;;;2.33;2.17;;;47.70;18.70;;;;;;4953570;29;20465;-82
2022/07/18 14:37:39;;;;;;;2.57;2.47;;;48.00;17.70;;;;;;4953323;28;20841;-82
2022/07/18 14:40:09;;;;;;;2.70;2.50;;;48.10;18.40;;;;;;4953578;29;20453;-82
2022/07/18 14:42:35;;;;;;;2.23;2.13;;;47.20;17.50;;;;;;4953601;29;20456;-82
2022/07/18 14:45:02;;;;;;;2.17;2.07;;;47.70;18.80;;;;;;4954172;29;20457;-82
2022/07/18 14:47:31;;;;;;;2.37;2.17;;;48.00;18.50;;;;;;4953760;28;20563;-82
2022/07/18 14:49:58;;;;;;;2.70;2.60;;;48.20;18.20;;;;;;4953555;29;21011;-82
2022/07/18 14:52:25;;;;;;;2.43;2.33;;;48.70;18.50;;;;;;4953566;29;20459;-82
2022/07/18 14:54:51;;;;;;;2.73;2.53;;;49.00;17.60;;;;;;4953607;28;20456;-82
2022/07/18 14:57:19;;;;;;;2.83;2.63;;;49.30;17.40;;;;;;4953115;28;20480;-83
2022/07/18 14:59:46;;;;;;;2.40;2.30;;;49.00;17.20;;;;;;4953439;29;20457;-82
2022/07/18 15:02:14;;;;;;;2.23;2.03;;;48.90;17.40;;;;;;4952092;29;20461;-81
2022/07/18 15:14:28;;;;;;;2.47;2.37;;;49.50;17.60;;;;;;4938640;28;20445;-85
2022/07/18 15:27:09;;;;;;;2.80;2.23;;;50.20;17.30;;;;;;4959384;29;20727;-83
2022/07/18 15:30:17;;;;;;;3.17;2.87;;;50.50;17.40;;;;;;4957869;29;20449;-86
2022/07/18 15:39:27;;;;;;;3.00;2.80;;;50.80;17.00;;;;;;4897015;28;20521;-85